createdAt,value
2022-09-27T00:01:13.620Z,9.25
2022-09-27T00:03:42.675Z,9.67
2022-09-27T00:06:15.760Z,10.00
2022-09-27T00:08:44.180Z,7.25
2022-09-27T00:11:18.861Z,9.50
2022-09-27T00:13:47.150Z,7.75
2022-09-27T00:16:15.692Z,8.75
2022-09-27T00:18:44.724Z,10.75
2022-09-27T00:21:14.060Z,10.50
2022-09-27T00:23:42.408Z,12.00
2022-09-27T00:26:14.989Z,10.33
2022-09-27T00:28:43.266Z,9.67
2022-09-27T00:31:21.274Z,8.75
2022-09-27T00:33:51.183Z,8.75
2022-09-27T00:36:21.200Z,9.75
2022-09-27T00:38:49.576Z,8.67
2022-09-27T00:41:22.494Z,9.50
2022-09-27T00:43:59.750Z,7.50
2022-09-27T00:46:45.983Z,10.50
2022-09-27T00:49:28.153Z,8.25
2022-09-27T00:52:16.599Z,9.75
2022-09-27T00:54:48.075Z,8.00
2022-09-27T00:57:17.401Z,9.00
2022-09-27T00:59:49.528Z,8.50
2022-09-27T01:02:18.588Z,8.50
2022-09-27T01:04:47.917Z,8.00
2022-09-27T01:07:16.637Z,9.25
2022-09-27T01:09:45.521Z,8.75
2022-09-27T01:12:25.960Z,9.67
2022-09-27T01:15:01.507Z,9.75
2022-09-27T01:18:04.188Z,9.50
2022-09-27T01:21:10.968Z,8.50
2022-09-27T01:24:07.554Z,8.25
2022-09-27T01:26:54.220Z,6.00
2022-09-27T01:30:06.942Z,7.67
2022-09-27T01:33:15.458Z,9.00
2022-09-27T01:36:02.275Z,6.50
2022-09-27T01:38:38.229Z,10.00
2022-09-27T01:41:21.555Z,8.50
2022-09-27T01:44:24.666Z,7.75
2022-09-27T01:46:56.406Z,7.67
2022-09-27T01:50:02.596Z,9.50
2022-09-27T01:52:55.633Z,8.33
2022-09-27T01:55:26.166Z,8.00
2022-09-27T01:58:03.449Z,10.50
2022-09-27T02:00:32.137Z,10.33
2022-09-27T02:03:18.231Z,9.75
2022-09-27T02:05:51.083Z,10.50
2022-09-27T02:08:36.494Z,9.50
2022-09-27T02:11:10.717Z,11.00
2022-09-27T02:13:49.021Z,9.25
2022-09-27T02:16:39.317Z,10.67
2022-09-27T02:19:32.798Z,10.25
2022-09-27T02:22:12.938Z,8.25
2022-09-27T02:24:46.462Z,8.00
2022-09-27T02:27:25.045Z,13.00
2022-09-27T02:30:06.543Z,12.33
2022-09-27T02:32:35.129Z,11.50
2022-09-27T02:35:13.546Z,8.00
2022-09-27T02:37:42.336Z,9.25
2022-09-27T02:40:11.149Z,9.25
2022-09-27T02:42:39.704Z,9.25
2022-09-27T02:45:09.413Z,8.75
2022-09-27T02:47:59.299Z,9.00
2022-09-27T02:51:05.158Z,9.50
2022-09-27T02:54:11.734Z,10.75
2022-09-27T02:56:58.955Z,8.00
2022-09-27T02:59:43.001Z,8.25
2022-09-27T03:02:40.531Z,10.33
2022-09-27T03:05:13.720Z,8.75
2022-09-27T03:07:42.845Z,9.75
2022-09-27T03:10:21.166Z,10.50
2022-09-27T03:12:50.657Z,9.33
2022-09-27T03:15:19.049Z,10.50
2022-09-27T03:17:47.735Z,8.00
2022-09-27T03:20:16.118Z,7.50
2022-09-27T03:22:44.904Z,9.00
2022-09-27T03:25:13.442Z,10.75
2022-09-27T03:27:41.764Z,8.50
2022-09-27T03:30:11.282Z,10.75
2022-09-27T03:32:44.183Z,11.25
2022-09-27T03:35:13.764Z,12.25
2022-09-27T03:37:42.450Z,9.75
2022-09-27T03:40:11.547Z,11.50
2022-09-27T03:42:40.234Z,9.67
2022-09-27T03:45:08.921Z,9.67
2022-09-27T03:47:41.559Z,10.00
2022-09-27T03:50:11.212Z,10.75
2022-09-27T03:52:40.326Z,12.00
2022-09-27T03:55:09.165Z,11.75
2022-09-27T03:57:37.473Z,12.00
2022-09-27T04:00:08.619Z,11.00
2022-09-27T04:02:37.178Z,13.25
2022-09-27T04:05:06.094Z,9.50
2022-09-27T04:07:34.679Z,10.33
2022-09-27T04:10:02.959Z,12.75
2022-09-27T04:12:31.134Z,10.75
2022-09-27T04:14:59.523Z,12.67
2022-09-27T04:17:28.195Z,12.33
2022-09-27T04:19:56.780Z,12.50
2022-09-27T04:22:25.176Z,11.50
2022-09-27T04:24:53.435Z,10.75
2022-09-27T04:27:23.102Z,12.00
2022-09-27T04:29:51.324Z,12.00
2022-09-27T04:32:19.837Z,9.67
2022-09-27T04:35:06.613Z,11.33
2022-09-27T04:37:34.995Z,9.50
2022-09-27T04:40:04.963Z,10.00
2022-09-27T04:42:34.925Z,12.75
2022-09-27T04:45:03.102Z,10.75
2022-09-27T04:47:31.582Z,12.50
2022-09-27T04:49:59.759Z,13.00
2022-09-27T04:52:28.134Z,9.33
2022-09-27T04:54:56.412Z,12.25
2022-09-27T04:57:24.896Z,10.75
2022-09-27T04:59:53.335Z,12.33
2022-09-27T05:02:21.584Z,11.25
2022-09-27T05:04:50.030Z,11.50
2022-09-27T05:07:18.309Z,10.25
2022-09-27T05:09:46.721Z,15.00
2022-09-27T05:12:15.169Z,11.25
2022-09-27T05:14:43.755Z,12.00
2022-09-27T05:17:12.935Z,15.00
2022-09-27T05:19:41.293Z,13.25
2022-09-27T05:22:09.711Z,13.00
2022-09-27T05:24:38.824Z,13.00
2022-09-27T05:27:09.474Z,13.00
2022-09-27T05:29:37.720Z,13.33
2022-09-27T05:32:05.998Z,14.00
2022-09-27T05:34:34.577Z,13.33
2022-09-27T05:37:02.957Z,15.00
2022-09-27T05:39:31.335Z,14.33
2022-09-27T05:41:59.718Z,16.00
2022-09-27T05:44:27.992Z,13.75
2022-09-27T05:46:56.372Z,14.67
2022-09-27T05:49:24.962Z,11.67
2022-09-27T05:51:53.338Z,13.50
2022-09-27T05:54:21.615Z,14.33
2022-09-27T05:56:50.223Z,14.75
2022-09-27T05:59:18.471Z,19.00
2022-09-27T06:01:47.004Z,17.50
2022-09-27T06:04:16.265Z,14.25
2022-09-27T06:06:44.738Z,15.50
2022-09-27T06:09:15.437Z,15.00
2022-09-27T06:11:46.923Z,15.25
2022-09-27T06:14:15.824Z,15.67
2022-09-27T06:16:46.063Z,14.67
2022-09-27T06:19:14.282Z,14.67
2022-09-27T06:21:42.590Z,14.75
2022-09-27T06:24:10.971Z,16.00
2022-09-27T06:26:39.557Z,16.50
2022-09-27T06:29:08.345Z,16.00
2022-09-27T06:31:36.825Z,14.00
2022-09-27T06:34:05.001Z,13.75
2022-09-27T06:36:34.200Z,15.00
2022-09-27T06:39:03.110Z,14.00
2022-09-27T06:41:31.474Z,15.00
2022-09-27T06:43:59.643Z,13.33
2022-09-27T06:46:28.083Z,15.67
2022-09-27T06:48:57.020Z,16.67
2022-09-27T06:51:25.401Z,16.67
2022-09-27T06:53:53.885Z,15.25
2022-09-27T06:56:22.052Z,16.00
2022-09-27T06:59:08.827Z,16.00
2022-09-27T07:01:37.425Z,16.00
2022-09-27T07:04:07.729Z,13.50
2022-09-27T07:06:36.768Z,15.00
2022-09-27T07:09:06.989Z,18.33
2022-09-27T07:11:38.439Z,10.33
2022-09-27T07:14:08.520Z,13.67
2022-09-27T07:16:37.085Z,14.00
2022-09-27T07:19:08.086Z,14.50
2022-09-27T07:21:36.464Z,13.25
2022-09-27T07:24:04.949Z,14.50
2022-09-27T07:26:33.733Z,15.00
2022-09-27T07:29:02.219Z,11.33
2022-09-27T07:31:30.710Z,14.50
2022-09-27T07:33:59.080Z,14.00
2022-09-27T07:36:28.173Z,15.00
2022-09-27T07:38:57.168Z,17.00
2022-09-27T07:41:25.982Z,14.00
2022-09-27T07:43:55.050Z,14.00
2022-09-27T07:46:23.685Z,10.75
2022-09-27T07:48:53.057Z,14.00
2022-09-27T07:51:21.773Z,17.00
2022-09-27T07:53:50.513Z,14.00
2022-09-27T07:56:19.406Z,14.75
2022-09-27T07:58:47.899Z,16.00
2022-09-27T08:01:16.520Z,15.00
2022-09-27T08:03:45.058Z,13.50
2022-09-27T08:06:13.425Z,12.25
2022-09-27T08:08:41.862Z,12.00
2022-09-27T08:11:15.653Z,14.75
2022-09-27T08:13:44.923Z,17.00
2022-09-27T08:16:14.622Z,15.50
2022-09-27T08:18:43.624Z,15.00
2022-09-27T08:21:12.006Z,14.25
2022-09-27T08:23:40.282Z,13.75
2022-09-27T08:26:08.562Z,12.75
2022-09-27T08:28:37.040Z,11.33
2022-09-27T08:31:05.524Z,13.33
2022-09-27T08:33:36.788Z,16.50
2022-09-27T08:36:12.830Z,15.67
2022-09-27T08:38:41.108Z,14.50
2022-09-27T08:41:33.724Z,13.50
2022-09-27T08:44:44.123Z,15.00
2022-09-27T08:47:18.987Z,14.00
2022-09-27T08:50:06.090Z,16.75
2022-09-27T08:52:44.484Z,15.00
2022-09-27T08:55:29.315Z,14.00
2022-09-27T08:57:59.469Z,12.50
2022-09-27T09:00:29.543Z,13.67
2022-09-27T09:02:58.599Z,15.00
2022-09-27T09:05:35.161Z,15.25
2022-09-27T09:08:31.436Z,11.25
2022-09-27T09:11:27.111Z,14.25
2022-09-27T09:14:27.639Z,12.25
2022-09-27T09:17:29.197Z,13.00
2022-09-27T09:20:17.250Z,12.00
2022-09-27T09:23:05.939Z,14.75
2022-09-27T09:25:37.547Z,11.75
2022-09-27T09:28:24.568Z,11.50
2022-09-27T09:31:10.353Z,12.00
2022-09-27T09:33:41.935Z,9.67
2022-09-27T09:36:22.424Z,11.75
2022-09-27T09:39:00.679Z,12.50
2022-09-27T09:41:36.506Z,11.25
2022-09-27T09:44:15.743Z,10.67
2022-09-27T09:46:47.596Z,14.00
2022-09-27T09:49:20.823Z,11.00
2022-09-27T09:52:08.952Z,12.25
2022-09-27T09:55:10.317Z,11.25
2022-09-27T09:57:53.445Z,8.33
2022-09-27T10:00:21.720Z,9.25
2022-09-27T10:02:53.175Z,12.25
2022-09-27T10:05:24.487Z,10.00
2022-09-27T10:07:55.330Z,9.67
2022-09-27T10:10:24.150Z,10.25
2022-09-27T10:12:52.738Z,9.75
2022-09-27T10:15:23.809Z,10.00
2022-09-27T10:17:54.833Z,8.75
2022-09-27T10:20:34.522Z,11.75
2022-09-27T10:23:23.248Z,11.50
2022-09-27T10:26:00.401Z,9.00
2022-09-27T10:28:46.334Z,10.00
2022-09-27T10:31:18.511Z,8.75
2022-09-27T10:33:58.359Z,9.25
2022-09-27T10:36:29.966Z,9.25
2022-09-27T10:39:01.036Z,10.00
2022-09-27T10:41:35.140Z,9.75
2022-09-27T10:44:21.216Z,8.50
2022-09-27T10:46:54.646Z,9.75
2022-09-27T10:49:31.673Z,10.50
2022-09-27T10:52:05.913Z,9.75
2022-09-27T10:54:36.648Z,11.25
2022-09-27T10:57:12.704Z,9.00
2022-09-27T10:59:43.888Z,7.33
2022-09-27T11:02:22.692Z,9.00
2022-09-27T11:05:05.826Z,9.50
2022-09-27T11:07:36.746Z,9.00
2022-09-27T11:10:30.503Z,8.50
2022-09-27T11:13:09.032Z,7.75
2022-09-27T11:16:00.435Z,6.25
2022-09-27T11:19:03.272Z,8.00
2022-09-27T11:21:52.197Z,7.75
2022-09-27T11:24:32.462Z,7.25
2022-09-27T11:27:05.621Z,8.75
2022-09-27T11:29:52.667Z,8.50
2022-09-27T11:32:59.342Z,7.50
2022-09-27T11:35:58.542Z,8.00
2022-09-27T11:38:52.326Z,6.25
2022-09-27T11:41:33.607Z,5.25
2022-09-27T11:44:14.266Z,7.00
2022-09-27T11:46:44.652Z,8.50
2022-09-27T11:49:22.188Z,5.00
2022-09-27T11:52:03.063Z,6.00
2022-09-27T11:54:49.771Z,5.75
2022-09-27T11:57:31.954Z,7.25
2022-09-27T12:00:18.130Z,5.33
2022-09-27T12:03:24.027Z,8.50
2022-09-27T12:06:10.454Z,6.00
2022-09-27T12:08:55.096Z,5.67
2022-09-27T12:11:38.218Z,6.67
2022-09-27T12:14:26.713Z,5.67
2022-09-27T12:16:57.811Z,6.33
2022-09-27T12:19:39.304Z,6.25
2022-09-27T12:22:13.369Z,8.00
2022-09-27T12:24:42.671Z,7.50
2022-09-27T12:27:18.155Z,6.33
2022-09-27T12:29:47.662Z,7.33
2022-09-27T12:32:23.843Z,6.25
2022-09-27T12:35:10.942Z,6.25
2022-09-27T12:37:54.042Z,7.50
2022-09-27T12:40:36.518Z,6.00
2022-09-27T12:43:27.886Z,7.00
2022-09-27T12:46:11.376Z,6.25
2022-09-27T12:49:11.188Z,7.25
2022-09-27T12:51:47.341Z,6.00
2022-09-27T12:54:34.632Z,7.75
2022-09-27T12:57:09.015Z,8.00
2022-09-27T12:59:46.495Z,9.00
2022-09-27T13:02:33.301Z,6.00
2022-09-27T13:05:48.949Z,6.33
2022-09-27T13:08:23.521Z,7.33
2022-09-27T13:11:17.957Z,7.00
2022-09-27T13:13:46.690Z,7.75
2022-09-27T13:16:15.203Z,6.33
2022-09-27T13:19:02.019Z,6.67
2022-09-27T13:21:51.929Z,6.75
2022-09-27T13:24:39.503Z,7.50
2022-09-27T13:27:23.513Z,7.33
2022-09-27T13:29:52.699Z,8.25
2022-09-27T13:32:26.581Z,6.75
2022-09-27T13:34:57.439Z,8.00
2022-09-27T13:37:47.637Z,6.25
2022-09-27T13:40:16.338Z,4.50
2022-09-27T13:43:10.409Z,7.33
2022-09-27T13:46:08.076Z,6.75
2022-09-27T13:48:36.856Z,7.75
2022-09-27T13:51:31.879Z,7.75
2022-09-27T13:54:10.339Z,7.33
2022-09-27T13:56:47.422Z,7.33
2022-09-27T13:59:24.927Z,7.67
2022-09-27T14:01:56.960Z,6.33
2022-09-27T14:04:30.520Z,7.00
2022-09-27T14:07:01.150Z,7.00
2022-09-27T14:09:33.089Z,6.50
2022-09-27T14:12:07.330Z,8.00
2022-09-27T14:14:36.538Z,4.50
2022-09-27T14:17:10.252Z,6.67
2022-09-27T14:19:44.966Z,6.00
2022-09-27T14:22:15.286Z,5.25
2022-09-27T14:24:47.025Z,5.50
2022-09-27T14:27:23.006Z,5.25
2022-09-27T14:30:13.910Z,5.00
2022-09-27T14:32:51.112Z,6.50
2022-09-27T14:35:45.692Z,5.50
2022-09-27T14:38:36.463Z,5.75
2022-09-27T14:41:10.886Z,5.50
2022-09-27T14:43:44.421Z,5.50
2022-09-27T14:46:28.442Z,6.00
2022-09-27T14:48:56.848Z,5.75
2022-09-27T14:51:31.233Z,5.50
2022-09-27T14:54:01.680Z,6.00
2022-09-27T14:56:34.066Z,5.33
2022-09-27T14:59:13.108Z,6.33
2022-09-27T15:01:51.619Z,7.75
2022-09-27T15:04:21.339Z,5.00
2022-09-27T15:06:50.110Z,7.00
2022-09-27T15:09:19.310Z,5.25
2022-09-27T15:11:54.723Z,5.00
2022-09-27T15:14:24.296Z,6.67
2022-09-27T15:16:53.242Z,5.25
2022-09-27T15:19:26.137Z,5.50
2022-09-27T15:21:54.416Z,6.67
2022-09-27T15:24:47.161Z,8.00
2022-09-27T15:27:15.446Z,6.00
2022-09-27T15:29:51.810Z,4.50
2022-09-27T15:32:25.616Z,5.25
2022-09-27T15:34:54.913Z,6.00
2022-09-27T15:37:36.071Z,6.25
2022-09-27T15:40:17.827Z,3.00
2022-09-27T15:42:59.809Z,6.25
2022-09-27T15:45:29.906Z,6.33
2022-09-27T15:48:12.211Z,5.00
2022-09-27T15:50:41.692Z,3.75
2022-09-27T15:53:11.118Z,11.00
2022-09-27T15:55:44.219Z,11.67
2022-09-27T15:58:20.062Z,9.75
2022-09-27T16:01:08.382Z,9.75
2022-09-27T16:03:36.995Z,11.25
2022-09-27T16:06:05.692Z,10.50
2022-09-27T16:08:33.968Z,4.25
2022-09-27T16:11:03.669Z,11.33
2022-09-27T16:13:33.331Z,10.25
2022-09-27T16:16:03.559Z,11.00
2022-09-27T16:18:33.212Z,10.50
2022-09-27T16:21:01.695Z,9.00
2022-09-27T16:23:29.970Z,11.50
2022-09-27T16:25:58.450Z,10.00
2022-09-27T16:28:28.778Z,11.00
2022-09-27T16:31:03.072Z,10.25
2022-09-27T16:33:33.119Z,9.75
2022-09-27T16:36:07.251Z,9.75
2022-09-27T16:38:35.612Z,12.25
2022-09-27T16:41:04.356Z,10.50
2022-09-27T16:43:34.006Z,10.50
2022-09-27T16:46:12.023Z,8.50
2022-09-27T16:48:40.900Z,11.75
2022-09-27T16:51:39.693Z,9.50
2022-09-27T16:54:08.689Z,8.67
2022-09-27T16:56:37.475Z,13.50
2022-09-27T16:59:07.089Z,11.33
2022-09-27T17:01:35.924Z,10.00
2022-09-27T17:04:04.456Z,12.00
2022-09-27T17:06:34.375Z,11.25
2022-09-27T17:09:04.710Z,10.75
2022-09-27T17:11:33.326Z,11.75
2022-09-27T17:14:01.864Z,11.00
2022-09-27T17:16:30.371Z,11.67
2022-09-27T17:18:59.237Z,9.25
2022-09-27T17:21:27.413Z,8.50
2022-09-27T17:23:55.600Z,11.75
2022-09-27T17:26:26.798Z,11.50
2022-09-27T17:28:57.669Z,10.00
2022-09-27T17:31:26.892Z,11.00
2022-09-27T17:33:57.853Z,8.00
2022-09-27T17:36:29.067Z,12.25
2022-09-27T17:38:59.332Z,11.00
2022-09-27T17:41:29.003Z,10.50
2022-09-27T17:43:59.558Z,10.00
2022-09-27T17:46:36.020Z,11.50
2022-09-27T17:49:23.311Z,10.50
2022-09-27T17:51:53.226Z,9.50
2022-09-27T17:54:23.809Z,10.50
2022-09-27T17:56:52.338Z,12.00
2022-09-27T17:59:20.936Z,10.50
2022-09-27T18:01:50.035Z,11.50
2022-09-27T18:04:19.992Z,8.25
2022-09-27T18:06:48.419Z,7.00
2022-09-27T18:09:17.517Z,8.67
2022-09-27T18:11:45.996Z,10.25
2022-09-27T18:14:14.884Z,11.00
2022-09-27T18:16:44.241Z,10.00
2022-09-27T18:19:16.460Z,10.33
2022-09-27T18:21:44.941Z,9.00
2022-09-27T18:24:15.129Z,10.67
2022-09-27T18:26:45.244Z,8.00
2022-09-27T18:29:16.185Z,9.50
2022-09-27T18:31:48.429Z,12.00
2022-09-27T18:34:20.558Z,11.75
2022-09-27T18:36:48.835Z,12.25
2022-09-27T18:39:21.425Z,12.25
2022-09-27T18:41:50.618Z,9.25
2022-09-27T18:44:19.540Z,9.25
2022-09-27T18:46:48.541Z,8.25
2022-09-27T18:49:17.078Z,10.00
2022-09-27T18:51:47.348Z,8.75
2022-09-27T18:54:22.526Z,8.50
2022-09-27T18:56:52.537Z,10.00
2022-09-27T18:59:24.317Z,8.75
2022-09-27T19:01:53.070Z,11.50
2022-09-27T19:04:26.100Z,9.25
2022-09-27T19:06:56.934Z,8.50
2022-09-27T19:09:28.485Z,8.67
2022-09-27T19:11:56.968Z,9.75
2022-09-27T19:14:25.653Z,9.25
2022-09-27T19:16:53.831Z,7.67
2022-09-27T19:19:22.514Z,9.00
2022-09-27T19:21:50.688Z,9.67
2022-09-27T19:24:19.279Z,11.50
2022-09-27T19:26:47.653Z,10.33
2022-09-27T19:29:16.061Z,9.33
2022-09-27T19:31:44.442Z,8.75
2022-09-27T19:34:14.535Z,11.00
2022-09-27T19:36:42.912Z,2.75
2022-09-27T19:39:11.235Z,9.00
2022-09-27T19:41:40.694Z,10.25
2022-09-27T19:44:09.176Z,11.00
2022-09-27T19:46:38.014Z,8.00
2022-09-27T19:49:06.654Z,9.00
2022-09-27T19:51:35.033Z,9.00
2022-09-27T19:54:04.641Z,7.67
2022-09-27T19:56:34.349Z,9.33
2022-09-27T19:59:06.842Z,7.00
2022-09-27T20:01:36.017Z,6.33
2022-09-27T20:04:04.504Z,8.67
2022-09-27T20:06:33.193Z,9.50
2022-09-27T20:09:03.387Z,7.50
2022-09-27T20:11:33.515Z,8.75
2022-09-27T20:14:01.813Z,8.33
2022-09-27T20:19:56.327Z,10.00
2022-09-27T20:22:24.912Z,8.33
2022-09-27T20:24:53.497Z,6.50
2022-09-27T20:27:21.874Z,9.67
2022-09-27T20:29:50.148Z,8.50
2022-09-27T20:32:33.628Z,7.00
2022-09-27T20:35:16.298Z,8.50
2022-09-27T20:37:44.780Z,9.00
2022-09-27T20:40:13.378Z,8.33
2022-09-27T20:42:41.843Z,8.25
2022-09-27T20:45:10.534Z,7.25
2022-09-27T20:47:39.631Z,8.75
2022-09-27T20:50:08.621Z,8.75
2022-09-27T20:52:36.910Z,8.67
2022-09-27T20:55:06.361Z,9.00
2022-09-27T20:57:55.942Z,5.50
2022-09-27T21:00:23.339Z,9.75
2022-09-27T21:02:51.817Z,8.00
2022-09-27T21:05:20.406Z,7.75
2022-09-27T21:07:53.596Z,8.67
2022-09-27T21:10:22.414Z,7.75
2022-09-27T21:12:50.764Z,8.50
2022-09-27T21:15:19.142Z,6.75
2022-09-27T21:17:47.429Z,8.50
2022-09-27T21:20:15.891Z,8.00
2022-09-27T21:22:44.792Z,9.00
2022-09-27T21:25:13.011Z,8.33
2022-09-27T21:27:41.349Z,9.00
2022-09-27T21:30:10.556Z,7.25
2022-09-27T21:32:38.925Z,10.00
2022-09-27T21:35:07.858Z,8.00
2022-09-27T21:37:36.298Z,9.75
2022-09-27T21:40:05.637Z,8.33
2022-09-27T21:42:33.976Z,8.33
2022-09-27T21:45:02.263Z,10.00
2022-09-27T21:47:30.735Z,5.75
2022-09-27T21:50:00.153Z,8.75
2022-09-27T21:52:28.517Z,9.75
2022-09-27T21:54:57.306Z,8.75
2022-09-27T21:57:25.791Z,8.00
2022-09-27T21:59:54.274Z,8.25
2022-09-27T22:02:23.729Z,7.75
2022-09-27T22:04:52.360Z,9.33
2022-09-27T22:07:20.944Z,10.50
2022-09-27T22:09:49.945Z,8.00
2022-09-27T22:12:18.214Z,8.33
2022-09-27T22:14:48.235Z,6.75
2022-09-27T22:17:16.405Z,6.25
2022-09-27T22:19:44.888Z,7.75
2022-09-27T22:22:13.274Z,9.75
2022-09-27T22:24:41.546Z,9.50
2022-09-27T22:27:10.028Z,8.00
2022-09-27T22:29:38.414Z,9.00
2022-09-27T22:32:07.297Z,6.75
2022-09-27T22:34:35.884Z,9.00
2022-09-27T22:37:04.365Z,9.25
2022-09-27T22:39:32.846Z,8.50
2022-09-27T22:42:01.536Z,7.75
2022-09-27T22:44:30.628Z,8.50
2022-09-27T22:46:59.157Z,10.00
2022-09-27T22:49:27.599Z,8.00
2022-09-27T22:51:56.278Z,7.00
2022-09-27T22:54:24.554Z,9.25
2022-09-27T22:56:57.554Z,8.00
2022-09-27T22:59:26.945Z,10.33
2022-09-27T23:01:55.632Z,8.25
2022-09-27T23:04:24.010Z,10.00
2022-09-27T23:06:52.391Z,7.75
2022-09-27T23:09:21.078Z,7.25
2022-09-27T23:11:49.353Z,8.25
2022-09-27T23:14:17.732Z,7.25
2022-09-27T23:16:46.215Z,8.33
2022-09-27T23:19:18.622Z,7.75
2022-09-27T23:21:47.173Z,9.25
2022-09-27T23:24:15.757Z,7.67
2022-09-27T23:26:44.581Z,8.50
2022-09-27T23:29:13.554Z,7.75
2022-09-27T23:31:41.942Z,8.67
2022-09-27T23:34:14.167Z,7.50
2022-09-27T23:36:42.471Z,7.50
2022-09-27T23:39:10.846Z,8.00
2022-09-27T23:41:40.553Z,8.50
2022-09-27T23:44:08.933Z,6.00
2022-09-27T23:46:37.730Z,6.00
2022-09-27T23:49:06.310Z,7.50
2022-09-27T23:51:34.791Z,7.25
2022-09-27T23:54:04.705Z,10.00
2022-09-27T23:56:33.000Z,10.00
2022-09-27T23:59:01.566Z,8.00
